Back to Top

Language: 

My Weather Underground Personal Weather Station Historical Data with Graphs...

Delerius Weather Station Historical Data
Daily Summary for July 21, 2017 Units:  Metric    English   Both
« Previous Day
Next Day »
Daily Weekly Monthly Yearly Custom
  High: Low: Average:
Temperature: 20.8 °C 12.4 °C 16.8 °C
Dew Point: 13.6 °C 9.1 °C 11.6 °C
Humidity: 91 % 57 % 72 %
Wind Speed: 27.4 km/h 0 km/h 15.8 km/h
Wind Gust: 53.1 km/h - -
Wind:- - SSE
Pressure: 1007.7 hPa 1003.6 hPa -
Precipitation: 0.25 mm    
Historical Graphs
 
 
Tabular Data for July 21, 2017
Time Temperature Dew Point Pressure Wind Wind Speed Wind Gust Humidity Rainfall Rate (Hourly) solar Conditions
00:00 13 °C 9.1 °C 1007.3 hPa SW 6.4 km/h 11.3 km/h 77 % 0 mm 0 W/m2
00:05 13.1 °C 9.2 °C 1007.7 hPa SSW 6.4 km/h 9.7 km/h 77 % 0 mm 0 W/m2
00:10 13.1 °C 9.2 °C 1007.7 hPa SSW 4.8 km/h 9.7 km/h 77 % 0 mm 0 W/m2
00:15 13.1 °C 9.2 °C 1007.3 hPa SW 4.8 km/h 9.7 km/h 77 % 0 mm 0 W/m2
00:20 13.1 °C 9.2 °C 1007.3 hPa SW 3.2 km/h 9.7 km/h 77 % 0 mm 0 W/m2
00:25 13.2 °C 9.3 °C 1007.7 hPa SW 1.6 km/h 8 km/h 77 % 0 mm 0 W/m2
00:30 13.2 °C 9.3 °C 1007.3 hPa Calm   6.4 km/h 77 % 0 mm 0 W/m2
00:35 13.2 °C 9.3 °C 1007.3 hPa Calm   1.6 km/h 77 % 0 mm 0 W/m2
00:40 13.2 °C 9.3 °C 1007.3 hPa Calm   3.2 km/h 77 % 0 mm 0 W/m2
00:45 13.2 °C 9.4 °C 1007.3 hPa Calm   3.2 km/h 78 % 0 mm 0 W/m2
00:50 13.2 °C 9.4 °C 1007.3 hPa Calm   3.2 km/h 78 % 0 mm 0 W/m2
00:56 13.2 °C 9.6 °C 1007.3 hPa Calm   3.2 km/h 79 % 0 mm 0 W/m2
01:01 13.1 °C 9.6 °C 1007.3 hPa Calm   3.2 km/h 79 % 0 mm 0 W/m2
01:06 13.1 °C 9.6 °C 1007.3 hPa SE 1.6 km/h 6.4 km/h 79 % 0 mm 0 W/m2
01:11 13.1 °C 9.6 °C 1007.3 hPa East 1.6 km/h 6.4 km/h 79 % 0 mm 0 W/m2
01:16 13.1 °C 9.6 °C 1007.3 hPa East 3.2 km/h 9.7 km/h 79 % 0 mm 0 W/m2
01:21 13.1 °C 9.6 °C 1007.3 hPa East 4.8 km/h 9.7 km/h 79 % 0 mm 0 W/m2
01:26 13.1 °C 9.7 °C 1007.3 hPa ESE 6.4 km/h 11.3 km/h 80 % 0 mm 0 W/m2
01:31 13 °C 9.6 °C 1007.3 hPa ESE 4.8 km/h 11.3 km/h 80 % 0 mm 0 W/m2
01:35 13 °C 9.6 °C 1007.3 hPa ESE 6.4 km/h 11.3 km/h 80 % 0 mm 0 W/m2
01:41 12.9 °C 9.6 °C 1007.3 hPa ESE 6.4 km/h 11.3 km/h 80 % 0 mm 0 W/m2
01:46 12.9 °C 9.7 °C 1007.3 hPa ESE 4.8 km/h 9.7 km/h 81 % 0 mm 0 W/m2
01:51 12.8 °C 9.6 °C 1007.3 hPa East 4.8 km/h 9.7 km/h 81 % 0 mm 0 W/m2
01:56 12.7 °C 9.5 °C 1007.3 hPa East 3.2 km/h 9.7 km/h 81 % 0 mm 0 W/m2
02:01 12.7 °C 9.7 °C 1007.3 hPa East 4.8 km/h 9.7 km/h 82 % 0 mm 0 W/m2
02:02 12.7 °C 9.7 °C 1007.3 hPa East 4.8 km/h 9.7 km/h 82 % 0 mm 0 W/m2
02:07 12.7 °C 9.7 °C 1007 hPa East 4.8 km/h 9.7 km/h 82 % 0 mm 0 W/m2
02:12 12.6 °C 9.6 °C 1007 hPa East 4.8 km/h 11.3 km/h 82 % 0 mm 0 W/m2
02:17 12.6 °C 9.6 °C 1007 hPa East 6.4 km/h 11.3 km/h 82 % 0 mm 0 W/m2
02:22 12.6 °C 9.8 °C 1007 hPa East 6.4 km/h 11.3 km/h 83 % 0 mm 0 W/m2
02:27 12.6 °C 9.8 °C 1007 hPa ESE 8 km/h 12.9 km/h 83 % 0 mm 0 W/m2
02:32 12.5 °C 9.7 °C 1006.7 hPa ESE 6.4 km/h 12.9 km/h 83 % 0 mm 0 W/m2
02:37 12.5 °C 9.7 °C 1006.7 hPa East 4.8 km/h 11.3 km/h 83 % 0 mm 0 W/m2
02:42 12.5 °C 9.7 °C 1006.7 hPa ESE 6.4 km/h 11.3 km/h 83 % 0 mm 0 W/m2
02:47 12.5 °C 9.9 °C 1006.7 hPa ESE 8 km/h 12.9 km/h 84 % 0 mm 0 W/m2
02:52 12.5 °C 9.9 °C 1006.7 hPa SE 8 km/h 12.9 km/h 84 % 0 mm 0 W/m2
02:57 12.4 °C 9.8 °C 1006.7 hPa SE 8 km/h 11.3 km/h 84 % 0 mm 0 W/m2
03:02 12.4 °C 9.8 °C 1006.3 hPa SE 8 km/h 12.9 km/h 84 % 0 mm 0 W/m2
03:07 12.4 °C 9.8 °C 1006.3 hPa SE 8 km/h 12.9 km/h 84 % 0 mm 0 W/m2
03:12 12.4 °C 9.8 °C 1006.3 hPa SE 8 km/h 14.5 km/h 84 % 0 mm 0 W/m2
03:17 12.4 °C 9.8 °C 1006.7 hPa SE 8 km/h 14.5 km/h 84 % 0 mm 0 W/m2
03:22 12.4 °C 9.8 °C 1006.7 hPa SE 8 km/h 11.3 km/h 84 % 0 mm 0 W/m2
03:27 12.4 °C 9.6 °C 1006.3 hPa SE 8 km/h 14.5 km/h 83 % 0 mm 0 W/m2
03:32 12.4 °C 9.6 °C 1006.3 hPa SE 8 km/h 16.1 km/h 83 % 0 mm 0 W/m2
03:37 12.6 °C 9.8 °C 1006.3 hPa SE 9.7 km/h 16.1 km/h 83 % 0 mm 0 W/m2
03:42 12.6 °C 9.6 °C 1006.3 hPa SE 9.7 km/h 16.1 km/h 82 % 0 mm 0 W/m2
03:47 12.7 °C 9.7 °C 1006.3 hPa SE 9.7 km/h 17.7 km/h 82 % 0 mm 0 W/m2
03:52 12.7 °C 9.7 °C 1006.3 hPa SSE 9.7 km/h 17.7 km/h 82 % 0 mm 0 W/m2
03:57 12.7 °C 9.7 °C 1006.3 hPa SE 9.7 km/h 19.3 km/h 82 % 0 mm 0 W/m2
04:02 12.8 °C 9.6 °C 1006.3 hPa SSE 9.7 km/h 19.3 km/h 81 % 0 mm 0 W/m2
04:07 12.8 °C 9.6 °C 1006.3 hPa SSE 9.7 km/h 14.5 km/h 81 % 0 mm 0 W/m2
04:12 12.9 °C 9.7 °C 1006.3 hPa SSE 11.3 km/h 25.7 km/h 81 % 0 mm 0 W/m2
04:17 12.9 °C 9.9 °C 1006.3 hPa SE 14.5 km/h 29 km/h 82 % 0 mm 0 W/m2
04:22 12.9 °C 10.1 °C 1006 hPa SSE 16.1 km/h 29 km/h 83 % 0 mm 0 W/m2
04:27 12.8 °C 10 °C 1006 hPa SSE 14.5 km/h 22.5 km/h 83 % 0 mm 0 W/m2
04:32 12.8 °C 10.2 °C 1006 hPa SSE 12.9 km/h 20.9 km/h 84 % 0 mm 0 W/m2
04:37 12.8 °C 10.2 °C 1006 hPa SSE 12.9 km/h 20.9 km/h 84 % 0 mm 0 W/m2
04:42 12.8 °C 10.3 °C 1005.6 hPa SSE 14.5 km/h 25.7 km/h 85 % 0 mm 0 W/m2
04:47 12.9 °C 10.4 °C 1005.6 hPa SSE 14.5 km/h 25.7 km/h 85 % 0 mm 0 W/m2
04:52 12.9 °C 10.4 °C 1005.6 hPa SSE 12.9 km/h 22.5 km/h 85 % 0 mm 0 W/m2
04:57 13 °C 10.7 °C 1005.6 hPa SSE 12.9 km/h 22.5 km/h 86 % 0 mm 0 W/m2
05:02 13 °C 10.7 °C 1005.6 hPa SSE 12.9 km/h 20.9 km/h 86 % 0 mm 7 W/m2
05:07 13 °C 10.7 °C 1005.6 hPa SSE 11.3 km/h 20.9 km/h 86 % 0 mm 12 W/m2
05:12 13 °C 10.9 °C 1005.6 hPa SSE 14.5 km/h 25.7 km/h 87 % 0 mm 18 W/m2
05:17 13 °C 10.9 °C 1005.6 hPa SSE 17.7 km/h 32.2 km/h 87 % 0 mm 23 W/m2
05:22 13 °C 10.9 °C 1005.6 hPa SSE 16.1 km/h 32.2 km/h 87 % 0 mm 21 W/m2
05:27 13 °C 11.1 °C 1005.6 hPa SSE 14.5 km/h 25.7 km/h 88 % 0 mm 30 W/m2
05:32 12.9 °C 10.9 °C 1005.6 hPa SSE 12.9 km/h 25.7 km/h 88 % 0 mm 35 W/m2
05:37 12.9 °C 11.1 °C 1005.6 hPa SSE 14.5 km/h 24.1 km/h 89 % 0 mm 39 W/m2
05:42 12.8 °C 11.2 °C 1005.6 hPa SSE 14.5 km/h 24.1 km/h 90 % 0 mm 40 W/m2
05:47 12.8 °C 11.2 °C 1005.6 hPa SSE 12.9 km/h 24.1 km/h 90 % 0 mm 44 W/m2
05:52 12.8 °C 11.2 °C 1005.3 hPa SSE 11.3 km/h 22.5 km/h 90 % 0 mm 51 W/m2
05:57 12.8 °C 11.2 °C 1005.6 hPa SSE 12.9 km/h 22.5 km/h 90 % 0 mm 47 W/m2
06:02 12.8 °C 11.4 °C 1005.6 hPa SSE 12.9 km/h 22.5 km/h 91 % 0 mm 47 W/m2
06:07 12.8 °C 11.4 °C 1005.6 hPa SE 12.9 km/h 22.5 km/h 91 % 0 mm 51 W/m2
06:12 12.8 °C 11.4 °C 1005.6 hPa SE 14.5 km/h 22.5 km/h 91 % 0 mm 47 W/m2
06:17 12.8 °C 11.4 °C 1005.6 hPa SSE 12.9 km/h 24.1 km/h 91 % 0 mm 51 W/m2
06:22 12.8 °C 11.4 °C 1005.6 hPa SSE 12.9 km/h 24.1 km/h 91 % 0 mm 49 W/m2
06:27 12.9 °C 11.4 °C 1005.3 hPa SSE 12.9 km/h 20.9 km/h 91 % 0 mm 62 W/m2
06:32 12.9 °C 11.3 °C 1005.3 hPa SSE 12.9 km/h 20.9 km/h 90 % 0 mm 62 W/m2
06:37 12.9 °C 11.3 °C 1005.3 hPa SE 14.5 km/h 25.7 km/h 90 % 0 mm 65 W/m2
06:42 13 °C 11.4 °C 1005.3 hPa SSE 14.5 km/h 25.7 km/h 90 % 0 mm 84 W/m2
06:47 13.1 °C 11.5 °C 1005.3 hPa SSE 12.9 km/h 22.5 km/h 90 % 0 mm 105 W/m2
06:52 13.2 °C 11.6 °C 1005.3 hPa SSE 12.9 km/h 20.9 km/h 90 % 0 mm 125 W/m2
06:57 13.3 °C 11.5 °C 1005.3 hPa SSE 14.5 km/h 22.5 km/h 89 % 0 mm 125 W/m2
07:02 13.4 °C 11.6 °C 1005.3 hPa SSE 12.9 km/h 22.5 km/h 89 % 0 mm 130 W/m2
07:07 13.6 °C 11.8 °C 1005.3 hPa SSE 14.5 km/h 24.1 km/h 89 % 0 mm 120 W/m2
07:12 13.7 °C 11.7 °C 1005.3 hPa SE 16.1 km/h 25.7 km/h 88 % 0 mm 113 W/m2
07:17 13.8 °C 11.8 °C 1005.3 hPa SSE 14.5 km/h 25.7 km/h 88 % 0 mm 137 W/m2
07:22 13.9 °C 11.9 °C 1005.3 hPa SSE 12.9 km/h 22.5 km/h 88 % 0 mm 274 W/m2
07:27 14.1 °C 12.2 °C 1005.3 hPa SSE 12.9 km/h 20.9 km/h 88 % 0 mm 311 W/m2
07:32 14.4 °C 12.4 °C 1005.3 hPa SSE 12.9 km/h 20.9 km/h 88 % 0 mm 246 W/m2
07:37 14.6 °C 12.6 °C 1005.6 hPa SSE 14.5 km/h 30.6 km/h 88 % 0 mm 294 W/m2
07:42 14.8 °C 12.8 °C 1005.6 hPa SSE 14.5 km/h 30.6 km/h 88 % 0 mm 292 W/m2
07:48 14.9 °C 12.9 °C 1005.3 hPa SSE 14.5 km/h 29 km/h 88 % 0 mm 294 W/m2
07:53 15 °C 12.7 °C 1005.6 hPa SSE 16.1 km/h 33.8 km/h 86 % 0 mm 195 W/m2
07:58 15 °C 12.8 °C 1005.6 hPa SSE 16.1 km/h 33.8 km/h 87 % 0 mm 176 W/m2
08:03 15 °C 12.7 °C 1005.6 hPa SSE 14.5 km/h 32.2 km/h 86 % 0 mm 265 W/m2
08:08 15.1 °C 12.8 °C 1005.6 hPa SSE 16.1 km/h 32.2 km/h 86 % 0 mm 260 W/m2
08:13 15.2 °C 12.9 °C 1005.6 hPa SSE 16.1 km/h 25.7 km/h 86 % 0 mm 376 W/m2
08:18 15.4 °C 12.9 °C 1005.6 hPa SSE 16.1 km/h 30.6 km/h 85 % 0 mm 554 W/m2
08:23 15.7 °C 13.2 °C 1005.6 hPa SSE 17.7 km/h 37 km/h 85 % 0 mm 373 W/m2
08:28 15.8 °C 12.9 °C 1005.6 hPa SSE 19.3 km/h 37 km/h 83 % 0 mm 287 W/m2
08:33 15.8 °C 12.9 °C 1005.6 hPa SSE 20.9 km/h 37 km/h 83 % 0 mm 680 W/m2
08:38 16.1 °C 13 °C 1005.6 hPa SSE 20.9 km/h 40.2 km/h 82 % 0 mm 332 W/m2
08:43 16.2 °C 12.9 °C 1005.6 hPa SSE 19.3 km/h 43.5 km/h 81 % 0 mm 253 W/m2
08:48 16.2 °C 12.9 °C 1005.6 hPa South 19.3 km/h 43.5 km/h 81 % 0 mm 251 W/m2
08:53 16.3 °C 12.8 °C 1005.6 hPa South 19.3 km/h 41.8 km/h 80 % 0 mm 220 W/m2
08:58 16.3 °C 12.8 °C 1005.6 hPa SSE 19.3 km/h 40.2 km/h 80 % 0 mm 223 W/m2
09:03 16.3 °C 12.8 °C 1005.3 hPa SSE 19.3 km/h 41.8 km/h 80 % 0 mm 297 W/m2
09:08 16.4 °C 12.7 °C 1005.6 hPa SSE 22.5 km/h 41.8 km/h 79 % 0 mm 397 W/m2
09:13 16.6 °C 12.9 °C 1005.3 hPa SSE 22.5 km/h 40.2 km/h 79 % 0 mm 461 W/m2
09:18 16.9 °C 12.8 °C 1005.3 hPa SSE 19.3 km/h 40.2 km/h 77 % 0 mm 657 W/m2
09:23 16.9 °C 12.8 °C 1005.3 hPa SSE 20.9 km/h 43.5 km/h 77 % 0 mm 473 W/m2
09:28 16.9 °C 12.8 °C 1005.3 hPa South 22.5 km/h 43.5 km/h 77 % 0 mm 285 W/m2
09:33 16.8 °C 12.7 °C 1005.3 hPa South 20.9 km/h 38.6 km/h 77 % 0 mm 327 W/m2
09:38 16.9 °C 12.8 °C 1005.3 hPa SSE 20.9 km/h 40.2 km/h 77 % 0 mm 403 W/m2
09:43 16.9 °C 12.7 °C 1005.3 hPa SSE 22.5 km/h 40.2 km/h 76 % 0 mm 422 W/m2
09:48 17.2 °C 12.9 °C 1005.3 hPa SSE 25.7 km/h 40.2 km/h 76 % 0 mm 369 W/m2
09:53 17.4 °C 13.1 °C 1005.3 hPa SSE 20.9 km/h 40.2 km/h 76 % 0 mm 313 W/m2
09:58 17.6 °C 13.1 °C 1005.3 hPa South 20.9 km/h 46.7 km/h 75 % 0 mm 269 W/m2
10:03 17.4 °C 12.9 °C 1005.3 hPa South 25.7 km/h 53.1 km/h 75 % 0 mm 239 W/m2
10:08 17.4 °C 12.9 °C 1005.3 hPa South 22.5 km/h 53.1 km/h 75 % 0 mm 638 W/m2
10:13 17.6 °C 13.1 °C 1005.3 hPa South 20.9 km/h 38.6 km/h 75 % 0 mm 302 W/m2
10:18 17.7 °C 13 °C 1005.3 hPa SSE 22.5 km/h 40.2 km/h 74 % 0 mm 338 W/m2
10:23 17.7 °C 12.8 °C 1005.3 hPa SSE 22.5 km/h 45.1 km/h 73 % 0 mm 304 W/m2
10:28 17.8 °C 12.9 °C 1005.3 hPa SSE 20.9 km/h 45.1 km/h 73 % 0 mm 359 W/m2
10:33 17.9 °C 13 °C 1005.3 hPa SSE 22.5 km/h 41.8 km/h 73 % 0 mm 387 W/m2
10:38 18.1 °C 12.9 °C 1005.3 hPa SSE 25.7 km/h 40.2 km/h 72 % 0 mm 302 W/m2
10:43 18.1 °C 12.9 °C 1005.3 hPa SSE 25.7 km/h 45.1 km/h 72 % 0 mm 417 W/m2
10:48 18.2 °C 13.1 °C 1005.3 hPa SSE 22.5 km/h 45.1 km/h 72 % 0 mm 327 W/m2
10:53 18.2 °C 12.8 °C 1005.3 hPa SSE 22.5 km/h 41.8 km/h 71 % 0 mm 302 W/m2
10:58 18.1 °C 12.8 °C 1005.3 hPa SSE 24.1 km/h 45.1 km/h 71 % 0 mm 260 W/m2
11:03 18.1 °C 12.8 °C 1005.3 hPa SSE 22.5 km/h 45.1 km/h 71 % 0 mm 255 W/m2
11:08 18.2 °C 12.8 °C 1005.3 hPa SSE 19.3 km/h 38.6 km/h 71 % 0 mm 234 W/m2
11:13 18.1 °C 12.8 °C 1005.3 hPa SSE 19.3 km/h 33.8 km/h 71 % 0 mm 367 W/m2
11:18 18.1 °C 12.8 °C 1005.3 hPa SSE 22.5 km/h 41.8 km/h 71 % 0 mm 243 W/m2
11:24 18.1 °C 12.8 °C 1005.3 hPa SSE 22.5 km/h 41.8 km/h 71 % 0 mm 172 W/m2
11:29 18 °C 12.7 °C 1005.6 hPa SE 20.9 km/h 40.2 km/h 71 % 0 mm 158 W/m2
11:34 17.9 °C 12.8 °C 1005.3 hPa SE 20.9 km/h 40.2 km/h 72 % 0 mm 269 W/m2
11:38 17.9 °C 12.8 °C 1005.3 hPa SSE 20.9 km/h 40.2 km/h 72 % 0 mm 334 W/m2
11:43 18.1 °C 12.9 °C 1005.3 hPa SSE 20.9 km/h 40.2 km/h 72 % 0 mm 378 W/m2
11:48 18.1 °C 12.8 °C 1005.3 hPa SSE 24.1 km/h 45.1 km/h 71 % 0 mm 367 W/m2
11:53 18.2 °C 12.8 °C 1005.3 hPa SSE 25.7 km/h 45.1 km/h 71 % 0 mm 373 W/m2
11:58 18.3 °C 12.7 °C 1005.3 hPa SSE 22.5 km/h 38.6 km/h 70 % 0 mm 216 W/m2
12:04 18.1 °C 12.8 °C 1005.3 hPa SE 22.5 km/h 37 km/h 71 % 0 mm 105 W/m2
12:09 18 °C 12.7 °C 1005.3 hPa SSE 20.9 km/h 37 km/h 71 % 0 mm 105 W/m2
12:14 17.9 °C 12.6 °C 1005.3 hPa SSE 22.5 km/h 37 km/h 71 % 0 mm 190 W/m2
12:19 17.9 °C 12.8 °C 1005.3 hPa SSE 22.5 km/h 37 km/h 72 % 0 mm 360 W/m2
12:24 18.1 °C 12.8 °C 1005.3 hPa SSE 20.9 km/h 37 km/h 71 % 0 mm 411 W/m2
12:29 18.4 °C 12.8 °C 1005.3 hPa SSE 20.9 km/h 37 km/h 70 % 0 mm 524 W/m2
12:34 18.8 °C 12.8 °C 1005.3 hPa SSE 20.9 km/h 38.6 km/h 68 % 0 mm 424 W/m2
12:39 18.9 °C 12.9 °C 1005.3 hPa SSE 20.9 km/h 38.6 km/h 68 % 0 mm 323 W/m2
12:44 18.8 °C 13 °C 1005.3 hPa SSE 20.9 km/h 37 km/h 69 % 0 mm 197 W/m2
12:49 18.7 °C 12.7 °C 1005.3 hPa SSE 19.3 km/h 32.2 km/h 68 % 0 mm 195 W/m2
12:54 18.7 °C 12.9 °C 1005.3 hPa SE 17.7 km/h 38.6 km/h 69 % 0 mm 225 W/m2
12:59 18.7 °C 12.9 °C 1005.3 hPa SSE 17.7 km/h 38.6 km/h 69 % 0 mm 281 W/m2
13:04 18.7 °C 12.9 °C 1005 hPa SSE 19.3 km/h 35.4 km/h 69 % 0 mm 229 W/m2
13:09 18.7 °C 12.7 °C 1005 hPa SSE 20.9 km/h 35.4 km/h 68 % 0 mm 265 W/m2
13:14 18.7 °C 12.7 °C 1005 hPa SSE 22.5 km/h 46.7 km/h 68 % 0 mm 311 W/m2
13:19 18.8 °C 12.6 °C 1005.3 hPa SSE 24.1 km/h 46.7 km/h 67 % 0 mm 367 W/m2
13:24 18.8 °C 12.6 °C 1005.3 hPa SSE 22.5 km/h 38.6 km/h 67 % 0 mm 306 W/m2
13:29 18.9 °C 12.4 °C 1005.3 hPa SSE 20.9 km/h 38.6 km/h 66 % 0 mm 274 W/m2
13:34 18.9 °C 12.4 °C 1005 hPa SSE 20.9 km/h 33.8 km/h 66 % 0 mm 255 W/m2
13:39 18.9 °C 12.4 °C 1005 hPa SSE 19.3 km/h 32.2 km/h 66 % 0 mm 257 W/m2
13:44 18.9 °C 12.4 °C 1005.3 hPa SSE 19.3 km/h 33.8 km/h 66 % 0 mm 199 W/m2
13:49 18.9 °C 12.4 °C 1005 hPa SSE 19.3 km/h 33.8 km/h 66 % 0 mm 213 W/m2
13:54 18.9 °C 12.4 °C 1005 hPa SSE 19.3 km/h 41.8 km/h 66 % 0 mm 311 W/m2
13:59 19.1 °C 12.4 °C 1005.3 hPa SE 20.9 km/h 41.8 km/h 65 % 0 mm 188 W/m2
14:04 19.1 °C 12.4 °C 1005 hPa SSE 20.9 km/h 33.8 km/h 65 % 0 mm 193 W/m2
14:09 19.1 °C 12.1 °C 1005.3 hPa SSE 22.5 km/h 40.2 km/h 64 % 0 mm 142 W/m2
14:14 19 °C 12.1 °C 1005.3 hPa SSE 22.5 km/h 40.2 km/h 64 % 0 mm 127 W/m2
14:19 19.1 °C 12.4 °C 1005.3 hPa SSE 19.3 km/h 40.2 km/h 65 % 0 mm 98 W/m2
14:24 19 °C 12.3 °C 1005.3 hPa SSE 17.7 km/h 30.6 km/h 65 % 0 mm 65 W/m2
14:29 18.9 °C 11.9 °C 1005.3 hPa SSE 17.7 km/h 32.2 km/h 64 % 0 mm 95 W/m2
14:34 18.9 °C 11.9 °C 1005.3 hPa SSE 17.7 km/h 33.8 km/h 64 % 0 mm 158 W/m2
14:37 18.9 °C 11.9 °C 1005.3 hPa SSE 17.7 km/h 33.8 km/h 64 % 0 mm 144 W/m2
14:42 18.9 °C 11.9 °C 1005.3 hPa SSE 19.3 km/h 33.8 km/h 64 % 0 mm 135 W/m2
14:47 18.9 °C 11.9 °C 1005.3 hPa SSE 19.3 km/h 33.8 km/h 64 % 0 mm 121 W/m2
14:52 18.8 °C 11.8 °C 1005.3 hPa SSE 20.9 km/h 37 km/h 64 % 0 mm 153 W/m2
14:57 18.8 °C 11.8 °C 1005.3 hPa SSE 17.7 km/h 37 km/h 64 % 0 mm 144 W/m2
15:02 18.8 °C 11.8 °C 1005.3 hPa SSE 14.5 km/h 24.1 km/h 64 % 0 mm 111 W/m2
15:07 18.8 °C 11.8 °C 1005.3 hPa SSE 19.3 km/h 41.8 km/h 64 % 0 mm 165 W/m2
15:12 18.8 °C 11.8 °C 1005.3 hPa SSE 22.5 km/h 41.8 km/h 64 % 0 mm 251 W/m2
15:17 18.8 °C 12.1 °C 1005 hPa SSE 20.9 km/h 38.6 km/h 65 % 0 mm 225 W/m2
15:22 18.9 °C 11.7 °C 1005 hPa SSE 19.3 km/h 35.4 km/h 63 % 0 mm 227 W/m2
15:27 19.1 °C 11.7 °C 1005 hPa SSE 20.9 km/h 38.6 km/h 62 % 0 mm 330 W/m2
15:32 19.2 °C 11.7 °C 1005 hPa SE 22.5 km/h 40.2 km/h 62 % 0 mm 290 W/m2
15:37 19.2 °C 11.7 °C 1004.6 hPa SSE 22.5 km/h 40.2 km/h 62 % 0 mm 276 W/m2
15:42 19.3 °C 11.6 °C 1005 hPa SSE 22.5 km/h 37 km/h 61 % 0 mm 306 W/m2
15:47 19.4 °C 11.9 °C 1004.6 hPa SE 20.9 km/h 37 km/h 62 % 0 mm 281 W/m2
15:53 19.5 °C 11.8 °C 1004.6 hPa SE 19.3 km/h 33.8 km/h 61 % 0 mm 276 W/m2
15:58 19.6 °C 11.9 °C 1004.6 hPa SE 20.9 km/h 35.4 km/h 61 % 0 mm 290 W/m2
16:03 19.6 °C 11.9 °C 1004.6 hPa SE 20.9 km/h 37 km/h 61 % 0 mm 322 W/m2
16:08 19.7 °C 11.7 °C 1004.6 hPa SE 22.5 km/h 40.2 km/h 60 % 0 mm 531 W/m2
16:13 19.8 °C 11.8 °C 1004.6 hPa SE 24.1 km/h 40.2 km/h 60 % 0 mm 418 W/m2
16:18 19.9 °C 11.9 °C 1004.6 hPa SSE 20.9 km/h 40.2 km/h 60 % 0 mm 410 W/m2
16:23 20.2 °C 11.9 °C 1004.6 hPa SSE 22.5 km/h 51.5 km/h 59 % 0 mm 782 W/m2
16:28 20.6 °C 12.1 °C 1004.6 hPa SE 25.7 km/h 51.5 km/h 58 % 0 mm 360 W/m2
16:33 20.5 °C 11.9 °C 1004.6 hPa SE 24.1 km/h 43.5 km/h 58 % 0 mm 371 W/m2
16:38 20.5 °C 12.2 °C 1004.6 hPa SE 22.5 km/h 43.5 km/h 59 % 0 mm 744 W/m2
16:43 20.8 °C 12.2 °C 1004.3 hPa SE 20.9 km/h 40.2 km/h 58 % 0 mm 777 W/m2
16:48 20.8 °C 11.9 °C 1004.3 hPa SE 25.7 km/h 49.9 km/h 57 % 0 mm 438 W/m2
16:53 20.7 °C 11.9 °C 1004.3 hPa SSE 27.4 km/h 49.9 km/h 57 % 0 mm 418 W/m2
16:58 20.7 °C 12.1 °C 1004.3 hPa SE 25.7 km/h 43.5 km/h 58 % 0 mm 418 W/m2
17:03 20.7 °C 11.9 °C 1004.3 hPa SE 25.7 km/h 43.5 km/h 57 % 0 mm 325 W/m2
17:08 20.6 °C 11.8 °C 1004.3 hPa SE 25.7 km/h 45.1 km/h 57 % 0 mm 369 W/m2
17:13 20.6 °C 12.1 °C 1004.3 hPa SE 27.4 km/h 45.1 km/h 58 % 0 mm 269 W/m2
17:18 20.4 °C 11.8 °C 1004.3 hPa SE 24.1 km/h 41.8 km/h 58 % 0 mm 369 W/m2
17:23 20.4 °C 11.8 °C 1004.3 hPa SE 25.7 km/h 45.1 km/h 58 % 0 mm 292 W/m2
17:28 20.5 °C 11.9 °C 1004.3 hPa SE 24.1 km/h 45.1 km/h 58 % 0 mm 223 W/m2
17:33 20.4 °C 11.8 °C 1004.3 hPa SE 22.5 km/h 37 km/h 58 % 0 mm 185 W/m2
17:38 20.3 °C 11.8 °C 1004.3 hPa SE 22.5 km/h 40.2 km/h 58 % 0 mm 163 W/m2
17:43 20.2 °C 11.7 °C 1004.3 hPa SSE 22.5 km/h 40.2 km/h 58 % 0 mm 163 W/m2
17:48 20.2 °C 11.7 °C 1003.9 hPa SSE 22.5 km/h 38.6 km/h 58 % 0 mm 137 W/m2
17:53 20.2 °C 11.7 °C 1003.9 hPa SE 22.5 km/h 38.6 km/h 58 % 0 mm 118 W/m2
17:58 20.1 °C 11.6 °C 1003.9 hPa SE 20.9 km/h 35.4 km/h 58 % 0 mm 97 W/m2
18:03 20.1 °C 11.3 °C 1003.9 hPa SE 22.5 km/h 45.1 km/h 57 % 0 mm 120 W/m2
18:08 20 °C 11.2 °C 1003.9 hPa SE 24.1 km/h 45.1 km/h 57 % 0 mm 120 W/m2
18:13 20 °C 11.5 °C 1003.9 hPa SE 20.9 km/h 43.5 km/h 58 % 0 mm 105 W/m2
18:18 20 °C 11.5 °C 1003.9 hPa SE 19.3 km/h 43.5 km/h 58 % 0 mm 95 W/m2
18:23 19.9 °C 11.4 °C 1003.9 hPa SE 17.7 km/h 32.2 km/h 58 % 0 mm 120 W/m2
18:28 20 °C 11.5 °C 1003.9 hPa SE 19.3 km/h 35.4 km/h 58 % 0 mm 116 W/m2
18:33 20 °C 11.5 °C 1003.9 hPa SE 19.3 km/h 35.4 km/h 58 % 0 mm 109 W/m2
18:38 20.1 °C 11.6 °C 1003.9 hPa SE 17.7 km/h 33.8 km/h 58 % 0 mm 90 W/m2
18:43 20 °C 11.5 °C 1003.9 hPa SE 17.7 km/h 33.8 km/h 58 % 0 mm 91 W/m2
18:49 20 °C 11.2 °C 1003.9 hPa SE 20.9 km/h 40.2 km/h 57 % 0 mm 98 W/m2
18:54 20 °C 11.2 °C 1003.9 hPa SE 19.3 km/h 40.2 km/h 57 % 0 mm 95 W/m2
18:59 20 °C 11.2 °C 1003.9 hPa SE 17.7 km/h 32.2 km/h 57 % 0 mm 88 W/m2
19:04 20 °C 11.2 °C 1003.9 hPa SE 16.1 km/h 29 km/h 57 % 0 mm 39 W/m2
19:09 19.9 °C 11.1 °C 1003.9 hPa SE 17.7 km/h 38.6 km/h 57 % 0 mm 33 W/m2
19:14 19.9 °C 11.4 °C 1003.9 hPa SE 19.3 km/h 38.6 km/h 58 % 0 mm 37 W/m2
19:19 19.8 °C 11.3 °C 1003.9 hPa SE 17.7 km/h 32.2 km/h 58 % 0 mm 37 W/m2
19:20 19.8 °C 11.3 °C 1003.9 hPa SE 16.1 km/h 25.7 km/h 58 % 0 mm 40 W/m2
19:25 19.8 °C 11.3 °C 1003.9 hPa SE 16.1 km/h 29 km/h 58 % 0 mm 42 W/m2
19:30 19.8 °C 11.3 °C 1003.9 hPa SE 16.1 km/h 30.6 km/h 58 % 0 mm 21 W/m2
19:35 19.8 °C 11.3 °C 1003.9 hPa SE 16.1 km/h 30.6 km/h 58 % 0 mm 18 W/m2
19:40 19.7 °C 11.2 °C 1003.9 hPa SE 14.5 km/h 24.1 km/h 58 % 0 mm 23 W/m2
19:45 19.7 °C 11.4 °C 1003.9 hPa SE 12.9 km/h 22.5 km/h 59 % 0 mm 26 W/m2
19:50 19.6 °C 11.4 °C 1003.9 hPa SE 12.9 km/h 22.5 km/h 59 % 0 mm 35 W/m2
19:55 19.6 °C 11.4 °C 1003.9 hPa SE 14.5 km/h 25.7 km/h 59 % 0 mm 33 W/m2
20:00 19.6 °C 11.4 °C 1003.9 hPa SE 12.9 km/h 25.7 km/h 59 % 0 mm 33 W/m2
20:05 19.6 °C 11.4 °C 1003.9 hPa SE 12.9 km/h 20.9 km/h 59 % 0 mm 26 W/m2
20:10 19.6 °C 11.4 °C 1003.9 hPa SE 14.5 km/h 29 km/h 59 % 0 mm 25 W/m2
20:15 19.6 °C 11.6 °C 1003.9 hPa SE 12.9 km/h 29 km/h 60 % 0 mm 21 W/m2
20:20 19.6 °C 11.4 °C 1003.9 hPa SE 12.9 km/h 25.7 km/h 59 % 0 mm 19 W/m2
20:25 19.5 °C 11.5 °C 1003.6 hPa SE 14.5 km/h 25.7 km/h 60 % 0 mm 12 W/m2
20:30 19.4 °C 11.4 °C 1003.9 hPa SE 12.9 km/h 20.9 km/h 60 % 0 mm 9 W/m2
20:35 19.4 °C 11.4 °C 1003.9 hPa SE 12.9 km/h 24.1 km/h 60 % 0 mm 7 W/m2
20:40 19.4 °C 11.4 °C 1003.9 hPa SE 12.9 km/h 24.1 km/h 60 % 0 mm 7 W/m2
20:45 19.3 °C 11.3 °C 1003.9 hPa SE 12.9 km/h 20.9 km/h 60 % 0 mm 5 W/m2
20:50 19.3 °C 11.3 °C 1003.9 hPa SE 16.1 km/h 30.6 km/h 60 % 0 mm 0 W/m2
20:56 19.3 °C 11.3 °C 1003.9 hPa SE 17.7 km/h 32.2 km/h 60 % 0 mm 0 W/m2
21:01 19.3 °C 11.3 °C 1003.9 hPa SE 16.1 km/h 32.2 km/h 60 % 0 mm 0 W/m2
21:06 19.3 °C 11.3 °C 1003.9 hPa SE 16.1 km/h 29 km/h 60 % 0 mm 0 W/m2
21:11 19.3 °C 11.3 °C 1003.9 hPa SE 16.1 km/h 29 km/h 60 % 0 mm 0 W/m2
21:16 19.2 °C 11.5 °C 1003.9 hPa SE 16.1 km/h 35.4 km/h 61 % 0 mm 0 W/m2
21:21 19.2 °C 11.5 °C 1003.9 hPa SE 16.1 km/h 35.4 km/h 61 % 0 mm 0 W/m2
21:26 19.2 °C 11.2 °C 1003.9 hPa SE 16.1 km/h 29 km/h 60 % 0 mm 0 W/m2
21:31 19.2 °C 11.5 °C 1003.9 hPa SE 16.1 km/h 32.2 km/h 61 % 0 mm 0 W/m2
21:36 19.2 °C 11.5 °C 1003.9 hPa SE 16.1 km/h 32.2 km/h 61 % 0 mm 0 W/m2
21:41 19.1 °C 11.4 °C 1003.9 hPa ESE 14.5 km/h 30.6 km/h 61 % 0 mm 0 W/m2
21:46 19.1 °C 11.4 °C 1004.3 hPa SE 12.9 km/h 29 km/h 61 % 0 mm 0 W/m2
21:51 19 °C 11.6 °C 1004.3 hPa SE 12.9 km/h 20.9 km/h 62 % 0 mm 0 W/m2
21:56 18.9 °C 11.4 °C 1004.3 hPa ESE 12.9 km/h 19.3 km/h 62 % 0 mm 0 W/m2
22:01 18.8 °C 12.1 °C 1004.3 hPa ESE 12.9 km/h 20.9 km/h 65 % 0 mm 0 W/m2
22:06 18.6 °C 11.9 °C 1004.3 hPa ESE 11.3 km/h 22.5 km/h 65 % 0 mm 0 W/m2
22:11 18.4 °C 11.9 °C 1004.3 hPa SE 12.9 km/h 22.5 km/h 66 % 0 mm 0 W/m2
22:16 18.3 °C 11.6 °C 1004.3 hPa SE 12.9 km/h 22.5 km/h 65 % 0 mm 0 W/m2
22:21 18.3 °C 11.6 °C 1004.3 hPa SE 12.9 km/h 24.1 km/h 65 % 0 mm 0 W/m2
22:26 18.3 °C 11.6 °C 1004.3 hPa SE 12.9 km/h 24.1 km/h 65 % 0 mm 0 W/m2
22:31 18.3 °C 11.4 °C 1004.3 hPa SE 12.9 km/h 22.5 km/h 64 % 0 mm 0 W/m2
22:36 18.3 °C 11.4 °C 1004.3 hPa SE 12.9 km/h 19.3 km/h 64 % 0 mm 0 W/m2
22:41 18.3 °C 11.6 °C 1004.3 hPa SE 12.9 km/h 24.1 km/h 65 % 0 mm 0 W/m2
22:46 18.3 °C 11.6 °C 1004.3 hPa SE 14.5 km/h 29 km/h 65 % 0 mm 0 W/m2
22:51 18.3 °C 11.6 °C 1004.3 hPa SE 12.9 km/h 29 km/h 65 % 0 mm 0 W/m2
22:56 18.2 °C 11.7 °C 1004.3 hPa SE 9.7 km/h 17.7 km/h 66 % 0 mm 0 W/m2
23:01 18.2 °C 11.7 °C 1004.3 hPa SE 8 km/h 14.5 km/h 66 % 0 mm 0 W/m2
23:06 18.1 °C 11.7 °C 1004.3 hPa SSE 8 km/h 12.9 km/h 66 % 0 mm 0 W/m2
23:11 18 °C 11.6 °C 1004.6 hPa SSE 8 km/h 12.9 km/h 66 % 0 mm 0 W/m2
23:16 17.9 °C 12.1 °C 1004.6 hPa South 9.7 km/h 22.5 km/h 69 % 0 mm 0 W/m2
23:21 17.8 °C 12.4 °C 1004.6 hPa South 12.9 km/h 22.5 km/h 71 % 0 mm 0 W/m2
23:26 17.6 °C 12.7 °C 1004.6 hPa South 14.5 km/h 24.1 km/h 73 % 0 mm 0 W/m2
23:31 17.4 °C 12.7 °C 1004.6 hPa South 14.5 km/h 24.1 km/h 74 % 0 mm 0 W/m2
23:36 17.2 °C 13.1 °C 1004.6 hPa South 12.9 km/h 22.5 km/h 77 % 0 mm 0 W/m2
23:41 16.9 °C 13.4 °C 1004.6 hPa South 11.3 km/h 22.5 km/h 80 % 0 mm 0 W/m2
23:46 16.7 °C 13.6 °C 1004.6 hPa South 9.7 km/h 16.1 km/h 82 % 0.25 mm 0 W/m2
23:51 16.4 °C 13.5 °C 1004.6 hPa South 9.7 km/h 16.1 km/h 83 % 0.25 mm 0 W/m2
23:56 16.2 °C 13.5 °C 1004.6 hPa SSE 9.7 km/h 20.9 km/h 84 % 0.25 mm 0 W/m2
Delerius-Weather
Compliments of Weather Underground - 2.25 mb

Data updates at regular intervals.